Air Resources Laboratory banner image
Air Resources Laboratory web site National Oceanic and Atmospheric Administration (NOAA)

la metar


KAEX 111753Z 12006KT 10SM BKN030 BKN036 BKN070 32/22 A3001 RMK AO2 SLP164
 T03170222 10322 20233 58009=
KARA 111753Z 29005KT 10SM BKN020 BKN075 28/23 A3001 RMK AO2 SLP161 T02780233
 10306 20244 58007=
KASD 111753Z AUTO 00000KT 10SM FEW008 BKN015 OVC041 27/24 A3004 RMK AO2
 RAB1659E24 SLP172 P0000 60001 T02670244 10283 20239 58004 TSNO=
KBAD 111756Z AUTO 31007KT 10SM FEW036 32/22 A3002 RMK AO2 SLP168 T03180222
 10326 20227 58006=
KBTR 111753Z 03009KT 10SM BKN049 BKN060 29/23 A3001 RMK AO2 LTG DSNT S SLP162
 60000 T02890233 10300 20239 58010=
KCWF 111753Z 03006KT 10SM BKN028 BKN035 31/23 A3000=
KDRI 111755Z AUTO 06007KT SCT033 SCT047 BKN090 31/22 A3004 RMK AO2 LTG DSNT N
 T03120220 10314 20228 PWINO=
KDTN 111753Z AUTO 36004KT 10SM FEW034 32/22 A3003 RMK AO2 SLP166 T03170222
 10322 20239 58005=
KESF 111753Z AUTO 11005KT 10SM FEW028 32/23 A3002 RMK AO2 SLP165 T03170228
 10317 20228 58009=
KHUM 111750Z 17007KT 7SM SCT014 BKN021 27/24 A3004=
KIER 111755Z AUTO 12006KT 10SM -VCTSDZ BKN080 OVC110 24/23 A3003 RMK AO2 LTG
 DSNT SE AND S P0001 60001 T02420230 10301 20236=
KLCH 111753Z 05004KT 10SM FEW034 SCT100 31/23 A3000 RMK AO2 LTG DSNT S AND SW
 SLP167 T03060233 10306 20222 58009=
KLFT 111753Z 33009KT 10SM BKN026 BKN029 BKN050 30/24 A3001 RMK AO2 SLP161
 T03000239 10306 20239 58009=
KMLU 111753Z 05008KT 10SM BKN022 OVC030 31/24 A3004 RMK AO2 SLP171 T03110239
 10317 20239 58009=
KMSY 111753Z 18007KT 10SM FEW024 SCT050 BKN270 29/23 A3003 RMK AO2 SLP172 CB
 DSNT N-E AND SE AND W-NW SHRA DSNT SE 60000 T02890233 10294 20239 58005=
KNBG 111755Z 15010KT 10SM SCT018 SCT024CB BKN050 BKN250 29/24 A3003 RMK AO2
 SLP170 CB SW T1 SET T02890239 10289 20233 58005 $=
KNEW 111753Z 15008KT 10SM FEW022 SCT044 BKN070 28/23 A3004 RMK AO2 SLP165 60000
 T02830228 10294 20244 58007=
KP92 111759Z AUTO 11006KT 27/24 A3000 RMK AO1 SLP158 60003 T02670239 10272
 20233 58005=
KPOE 111756Z AUTO 08004KT 10SM SCT029 BKN036 31/23 A3001 RMK AO2 LTG DSNT N
 SLP161 T03090225 10310 20223 58009=
KSHV 111756Z 02008KT 10SM SCT035 BKN050 BKN120 33/22 A3002 RMK AO2 SLP163 MDT
 CU NE AND SE T03280222 10333 20250 58005=
KTVR 111753Z AUTO 11004KT 10SM CLR 31/23 A3004 RMK AO2 SLP178 T03060228 10317
 20239 58009 $=